DLH9ML EDDF-EPKK
Flight info
| Callsign | DLH9ML |
|---|---|
| Flight time | 1h 17m |
| Altitude | 35000 |
| Route | TOBAK2D/07C TOBAK N858 SWALM T201 TAMEB DCT NEVKO DCT OMELO DCT OMIFU DCT ETUDA DCT SOPAV DCT PADKA |
| Aircraft | A21N/M-SDE2E3FGHIRWXY/LB1 |
Departure
| Time | 2026-05-07 20:16 |
|---|---|
| Airport | Frankfurt Main Airport (EDDF) |
Arrival
| Time | 2026-05-07 21:34 |
|---|---|
| Airport | Kraków John Paul II International Airport (EPKK) |
| Time | Latitude | Longitude | Altitude | Speed | Heading |
|---|---|---|---|---|---|
| 2026-05-07 19:13 | 50.03867 | 8.54788 | 365 ft | 0 kts | 160° |
| 2026-05-07 20:11 | 50.03859 | 8.54792 | 361 ft | 5 kts | 159° |
| 2026-05-07 20:11 | 50.03824 | 8.54813 | 356 ft | 6 kts | 160° |
| 2026-05-07 20:12 | 50.03779 | 8.54794 | 355 ft | 8 kts | 228° |
| 2026-05-07 20:12 | 50.03752 | 8.54706 | 355 ft | 10 kts | 249° |
| 2026-05-07 20:12 | 50.03724 | 8.54593 | 355 ft | 12 kts | 249° |
| 2026-05-07 20:12 | 50.03692 | 8.54463 | 356 ft | 14 kts | 249° |
| 2026-05-07 20:13 | 50.03656 | 8.54312 | 350 ft | 16 kts | 250° |
| 2026-05-07 20:13 | 50.03615 | 8.54138 | 351 ft | 18 kts | 250° |
| 2026-05-07 20:13 | 50.03569 | 8.53944 | 348 ft | 20 kts | 250° |
| 2026-05-07 20:13 | 50.03523 | 8.53745 | 347 ft | 7 kts | 250° |
| 2026-05-07 20:14 | 50.03502 | 8.53660 | 352 ft | 10 kts | 250° |
| 2026-05-07 20:14 | 50.03476 | 8.53549 | 347 ft | 12 kts | 250° |
| 2026-05-07 20:14 | 50.03444 | 8.53415 | 348 ft | 14 kts | 250° |
| 2026-05-07 20:14 | 50.03371 | 8.53326 | 342 ft | 16 kts | 158° |
| 2026-05-07 20:15 | 50.03295 | 8.53465 | 346 ft | 19 kts | 124° |
| 2026-05-07 20:15 | 50.03298 | 8.53619 | 349 ft | 12 kts | 69° |
| 2026-05-07 20:15 | 50.03333 | 8.53754 | 347 ft | 15 kts | 69° |
| 2026-05-07 20:15 | 50.03399 | 8.54036 | 349 ft | 60 kts | 70° |
| 2026-05-07 20:16 | 50.03640 | 8.55039 | 354 ft | 131 kts | 69° |
| 2026-05-07 20:16 | 50.04013 | 8.56610 | 404 ft | 172 kts | 70° |
| 2026-05-07 20:16 | 50.04334 | 8.58293 | 1209 ft | 161 kts | 76° |
| 2026-05-07 20:16 | 50.04538 | 8.60016 | 1924 ft | 165 kts | 78° |
| 2026-05-07 20:17 | 50.04867 | 8.61800 | 2515 ft | 178 kts | 70° |
| 2026-05-07 20:17 | 50.05394 | 8.63658 | 3238 ft | 195 kts | 62° |
| 2026-05-07 20:17 | 50.05964 | 8.65662 | 4021 ft | 210 kts | 66° |
| 2026-05-07 20:17 | 50.06502 | 8.67850 | 4810 ft | 226 kts | 68° |
| 2026-05-07 20:18 | 50.07146 | 8.70142 | 5674 ft | 234 kts | 56° |
| 2026-05-07 20:18 | 50.08324 | 8.71942 | 6447 ft | 247 kts | 28° |
| 2026-05-07 20:18 | 50.09923 | 8.73088 | 7050 ft | 264 kts | 20° |
| 2026-05-07 20:18 | 50.11677 | 8.74191 | 7811 ft | 275 kts | 21° |
| 2026-05-07 20:19 | 50.13468 | 8.75342 | 8739 ft | 280 kts | 21° |
| 2026-05-07 20:19 | 50.15255 | 8.76516 | 9746 ft | 284 kts | 22° |
| 2026-05-07 20:19 | 50.17116 | 8.77753 | 10514 ft | 299 kts | 22° |
| 2026-05-07 20:19 | 50.19121 | 8.79096 | 10906 ft | 326 kts | 22° |
| 2026-05-07 20:20 | 50.21289 | 8.80556 | 11261 ft | 351 kts | 22° |
| 2026-05-07 20:20 | 50.23580 | 8.82111 | 11623 ft | 372 kts | 22° |
| 2026-05-07 20:20 | 50.26039 | 8.83678 | 12170 ft | 385 kts | 17° |
| 2026-05-07 20:20 | 50.28653 | 8.84451 | 12894 ft | 388 kts | 1° |
| 2026-05-07 20:21 | 50.31366 | 8.84178 | 13663 ft | 391 kts | 351° |
| 2026-05-07 20:21 | 50.34057 | 8.83581 | 14332 ft | 396 kts | 350° |
| 2026-05-07 20:21 | 50.36796 | 8.82947 | 14981 ft | 400 kts | 350° |
| 2026-05-07 20:21 | 50.39574 | 8.82327 | 15627 ft | 403 kts | 351° |
| 2026-05-07 20:22 | 50.42376 | 8.81720 | 16234 ft | 407 kts | 351° |
| 2026-05-07 20:22 | 50.45171 | 8.81120 | 16839 ft | 410 kts | 351° |
| 2026-05-07 20:22 | 50.48029 | 8.80535 | 17456 ft | 414 kts | 352° |
| 2026-05-07 20:22 | 50.50899 | 8.80447 | 18027 ft | 419 kts | 3° |
| 2026-05-07 20:23 | 50.53791 | 8.81312 | 18566 ft | 424 kts | 15° |
| 2026-05-07 20:23 | 50.56515 | 8.83171 | 19069 ft | 429 kts | 28° |
| 2026-05-07 20:23 | 50.58940 | 8.85962 | 19558 ft | 434 kts | 41° |
| 2026-05-07 20:23 | 50.60913 | 8.89514 | 20031 ft | 438 kts | 54° |
| 2026-05-07 20:24 | 50.62471 | 8.93662 | 20518 ft | 442 kts | 61° |
| 2026-05-07 20:24 | 50.63939 | 8.97979 | 21017 ft | 445 kts | 61° |
| 2026-05-07 20:24 | 50.65396 | 9.02261 | 21502 ft | 449 kts | 61° |
| 2026-05-07 20:24 | 50.66895 | 9.06605 | 21998 ft | 452 kts | 60° |
| 2026-05-07 20:25 | 50.68413 | 9.10993 | 22508 ft | 456 kts | 61° |
| 2026-05-07 20:25 | 50.69942 | 9.15415 | 23022 ft | 460 kts | 61° |
| 2026-05-07 20:25 | 50.71388 | 9.19883 | 23526 ft | 464 kts | 66° |
| 2026-05-07 20:25 | 50.72393 | 9.24745 | 23996 ft | 467 kts | 75° |
| 2026-05-07 20:26 | 50.73150 | 9.29710 | 24477 ft | 470 kts | 77° |
| 2026-05-07 20:26 | 50.73891 | 9.34771 | 24967 ft | 473 kts | 77° |
| 2026-05-07 20:26 | 50.74646 | 9.39866 | 25443 ft | 475 kts | 76° |
| 2026-05-07 20:26 | 50.75396 | 9.44897 | 25981 ft | 474 kts | 76° |
| 2026-05-07 20:27 | 50.76155 | 9.49963 | 26603 ft | 472 kts | 76° |
| 2026-05-07 20:27 | 50.76907 | 9.55015 | 27229 ft | 470 kts | 76° |
| 2026-05-07 20:27 | 50.77647 | 9.59978 | 27821 ft | 468 kts | 76° |
| 2026-05-07 20:27 | 50.78390 | 9.64995 | 28413 ft | 467 kts | 76° |
| 2026-05-07 20:28 | 50.79130 | 9.70002 | 29011 ft | 465 kts | 76° |
| 2026-05-07 20:28 | 50.79853 | 9.74914 | 29602 ft | 463 kts | 76° |
| 2026-05-07 20:28 | 50.80586 | 9.79889 | 30195 ft | 462 kts | 76° |
| 2026-05-07 20:28 | 50.81315 | 9.84843 | 30657 ft | 461 kts | 76° |
| 2026-05-07 20:29 | 50.82032 | 9.89743 | 31087 ft | 461 kts | 76° |
| 2026-05-07 20:29 | 50.82755 | 9.94714 | 31562 ft | 460 kts | 76° |
| 2026-05-07 20:29 | 50.83475 | 9.99668 | 31993 ft | 460 kts | 76° |
| 2026-05-07 20:29 | 50.84168 | 10.04566 | 32407 ft | 461 kts | 78° |
| 2026-05-07 20:30 | 50.84487 | 10.09624 | 32801 ft | 462 kts | 90° |
| 2026-05-07 20:30 | 50.84290 | 10.14663 | 33202 ft | 462 kts | 95° |
| 2026-05-07 20:30 | 50.83972 | 10.19739 | 33603 ft | 462 kts | 95° |
| 2026-05-07 20:30 | 50.83647 | 10.24806 | 33991 ft | 462 kts | 95° |
| 2026-05-07 20:31 | 50.83339 | 10.29829 | 34315 ft | 462 kts | 95° |
| 2026-05-07 20:31 | 50.83038 | 10.34920 | 34609 ft | 463 kts | 95° |
| 2026-05-07 20:31 | 50.82742 | 10.39956 | 34883 ft | 464 kts | 95° |
| 2026-05-07 20:31 | 50.82442 | 10.45046 | 35099 ft | 466 kts | 95° |
| 2026-05-07 20:32 | 50.82138 | 10.50157 | 35140 ft | 465 kts | 95° |
| 2026-05-07 20:32 | 50.81528 | 10.60288 | 35119 ft | 464 kts | 95° |
| 2026-05-07 20:33 | 50.80920 | 10.70490 | 35108 ft | 464 kts | 94° |
| 2026-05-07 20:33 | 50.81327 | 10.80626 | 35109 ft | 464 kts | 81° |
| 2026-05-07 20:34 | 50.82315 | 10.90736 | 35113 ft | 464 kts | 81° |
| 2026-05-07 20:34 | 50.83214 | 11.00808 | 35109 ft | 463 kts | 82° |
| 2026-05-07 20:35 | 50.84077 | 11.10896 | 35111 ft | 463 kts | 82° |
| 2026-05-07 20:35 | 50.84925 | 11.20959 | 35109 ft | 463 kts | 82° |
| 2026-05-07 20:36 | 50.85712 | 11.31060 | 35099 ft | 463 kts | 86° |
| 2026-05-07 20:36 | 50.85798 | 11.41307 | 35101 ft | 464 kts | 90° |
| 2026-05-07 20:37 | 50.85814 | 11.51520 | 35103 ft | 464 kts | 90° |
| 2026-05-07 20:37 | 50.85836 | 11.61708 | 35105 ft | 464 kts | 90° |
| 2026-05-07 20:38 | 50.85850 | 11.71911 | 35105 ft | 464 kts | 90° |
| 2026-05-07 20:38 | 50.85839 | 11.82184 | 35101 ft | 464 kts | 90° |
| 2026-05-07 20:39 | 50.85827 | 11.92414 | 35097 ft | 466 kts | 90° |
| 2026-05-07 20:39 | 50.85809 | 12.02630 | 35097 ft | 466 kts | 90° |
| 2026-05-07 20:40 | 50.85787 | 12.12906 | 35093 ft | 466 kts | 90° |
| 2026-05-07 20:40 | 50.85754 | 12.23106 | 35104 ft | 465 kts | 90° |
| 2026-05-07 20:41 | 50.85708 | 12.33355 | 35109 ft | 466 kts | 90° |
| 2026-05-07 20:41 | 50.85656 | 12.43656 | 35111 ft | 467 kts | 90° |
| 2026-05-07 20:42 | 50.85602 | 12.53882 | 35108 ft | 467 kts | 90° |
| 2026-05-07 20:42 | 50.85534 | 12.64173 | 35107 ft | 466 kts | 91° |
| 2026-05-07 20:43 | 50.85464 | 12.74436 | 35107 ft | 467 kts | 91° |
| 2026-05-07 20:43 | 50.85376 | 12.84683 | 35100 ft | 465 kts | 91° |
| 2026-05-07 20:44 | 50.85280 | 12.94880 | 35095 ft | 465 kts | 91° |
| 2026-05-07 20:44 | 50.85174 | 13.05150 | 35089 ft | 464 kts | 91° |
| 2026-05-07 20:45 | 50.85060 | 13.15296 | 35084 ft | 464 kts | 91° |
| 2026-05-07 20:45 | 50.84940 | 13.25516 | 35076 ft | 464 kts | 91° |
| 2026-05-07 20:46 | 50.84807 | 13.35720 | 35078 ft | 464 kts | 92° |
| 2026-05-07 20:46 | 50.84659 | 13.45924 | 35079 ft | 464 kts | 92° |
| 2026-05-07 20:47 | 50.84511 | 13.56191 | 35084 ft | 464 kts | 92° |
| 2026-05-07 20:47 | 50.84354 | 13.66370 | 35087 ft | 464 kts | 92° |
| 2026-05-07 20:48 | 50.84192 | 13.76621 | 35084 ft | 464 kts | 92° |
| 2026-05-07 20:48 | 50.84017 | 13.86828 | 35079 ft | 464 kts | 92° |
| 2026-05-07 20:49 | 50.83627 | 13.97007 | 35071 ft | 463 kts | 101° |
| 2026-05-07 20:49 | 50.82774 | 14.01868 | 35067 ft | 461 kts | 112° |
| 2026-05-07 20:49 | 50.81326 | 14.06389 | 35069 ft | 459 kts | 123° |
| 2026-05-07 20:50 | 50.77855 | 14.14888 | 35075 ft | 459 kts | 124° |
| 2026-05-07 20:50 | 50.74385 | 14.23315 | 35054 ft | 459 kts | 124° |
| 2026-05-07 20:51 | 50.70917 | 14.31834 | 35055 ft | 459 kts | 124° |
| 2026-05-07 20:51 | 50.67478 | 14.40328 | 35051 ft | 460 kts | 124° |
| 2026-05-07 20:52 | 50.64033 | 14.48775 | 35059 ft | 461 kts | 124° |
| 2026-05-07 20:52 | 50.60556 | 14.57252 | 35050 ft | 461 kts | 124° |
| 2026-05-07 20:53 | 50.57652 | 14.64317 | 35048 ft | 460 kts | 125° |
| 2026-05-07 20:53 | 50.54177 | 14.72726 | 35049 ft | 460 kts | 125° |
| 2026-05-07 20:54 | 50.50673 | 14.81203 | 35047 ft | 460 kts | 125° |
| 2026-05-07 20:54 | 50.47193 | 14.89590 | 35043 ft | 460 kts | 125° |
| 2026-05-07 20:55 | 50.43704 | 14.97974 | 35032 ft | 460 kts | 125° |
| 2026-05-07 20:55 | 50.40213 | 15.06343 | 35036 ft | 459 kts | 125° |
| 2026-05-07 20:56 | 50.36695 | 15.14734 | 35031 ft | 459 kts | 126° |
| 2026-05-07 20:56 | 50.33193 | 15.23054 | 35033 ft | 459 kts | 126° |
| 2026-05-07 20:57 | 50.29679 | 15.31391 | 35032 ft | 461 kts | 126° |
| 2026-05-07 20:57 | 50.26126 | 15.39792 | 35026 ft | 459 kts | 126° |
| 2026-05-07 20:58 | 50.22603 | 15.48082 | 35026 ft | 459 kts | 126° |
| 2026-05-07 20:58 | 50.19082 | 15.56329 | 35026 ft | 459 kts | 126° |
| 2026-05-07 20:59 | 50.15528 | 15.64649 | 35025 ft | 459 kts | 126° |
| 2026-05-07 20:59 | 50.11994 | 15.72903 | 35024 ft | 459 kts | 126° |
| 2026-05-07 21:00 | 50.08459 | 15.81133 | 35018 ft | 456 kts | 127° |
| 2026-05-07 21:00 | 50.04934 | 15.89311 | 35023 ft | 456 kts | 127° |
| 2026-05-07 21:01 | 50.02079 | 15.98112 | 35027 ft | 464 kts | 108° |
| 2026-05-07 21:01 | 50.01573 | 16.03094 | 35031 ft | 468 kts | 95° |
| 2026-05-07 21:01 | 50.01523 | 16.08177 | 35039 ft | 469 kts | 92° |
| 2026-05-07 21:02 | 50.01539 | 16.18297 | 35016 ft | 470 kts | 92° |
| 2026-05-07 21:02 | 50.01481 | 16.28461 | 35033 ft | 471 kts | 93° |
| 2026-05-07 21:03 | 50.01396 | 16.38692 | 35033 ft | 471 kts | 93° |
| 2026-05-07 21:03 | 50.01311 | 16.48858 | 35034 ft | 471 kts | 94° |
| 2026-05-07 21:04 | 50.00912 | 16.59027 | 35036 ft | 470 kts | 97° |
| 2026-05-07 21:04 | 50.00428 | 16.69122 | 35024 ft | 465 kts | 97° |
| 2026-05-07 21:05 | 49.99943 | 16.79116 | 35034 ft | 465 kts | 97° |
| 2026-05-07 21:05 | 49.99447 | 16.89105 | 35038 ft | 465 kts | 97° |
| 2026-05-07 21:06 | 49.98941 | 16.99102 | 35031 ft | 465 kts | 97° |
| 2026-05-07 21:06 | 49.98426 | 17.09076 | 35015 ft | 465 kts | 98° |
| 2026-05-07 21:07 | 49.97917 | 17.19036 | 35029 ft | 460 kts | 98° |
| 2026-05-07 21:07 | 49.97404 | 17.28952 | 35033 ft | 460 kts | 98° |
| 2026-05-07 21:08 | 49.96879 | 17.38882 | 35036 ft | 460 kts | 98° |
| 2026-05-07 21:08 | 49.96339 | 17.48751 | 35037 ft | 460 kts | 98° |
| 2026-05-07 21:09 | 49.95786 | 17.58628 | 35019 ft | 458 kts | 99° |
| 2026-05-07 21:09 | 49.95224 | 17.68476 | 35034 ft | 456 kts | 99° |
| 2026-05-07 21:10 | 49.94653 | 17.78264 | 35038 ft | 456 kts | 99° |
| 2026-05-07 21:10 | 49.94076 | 17.88064 | 35036 ft | 457 kts | 99° |
| 2026-05-07 21:11 | 49.93499 | 17.97859 | 35040 ft | 456 kts | 100° |
| 2026-05-07 21:11 | 49.93159 | 18.12660 | 34990 ft | 455 kts | 93° |
| 2026-05-07 21:12 | 49.93231 | 18.17605 | 34148 ft | 458 kts | 94° |
| 2026-05-07 21:12 | 49.93297 | 18.22537 | 32930 ft | 465 kts | 94° |
| 2026-05-07 21:12 | 49.93354 | 18.27612 | 31784 ft | 468 kts | 95° |
| 2026-05-07 21:12 | 49.93249 | 18.32691 | 30770 ft | 468 kts | 98° |
| 2026-05-07 21:13 | 49.93100 | 18.37673 | 29924 ft | 465 kts | 98° |
| 2026-05-07 21:13 | 49.92944 | 18.42690 | 28974 ft | 462 kts | 98° |
| 2026-05-07 21:13 | 49.92789 | 18.47686 | 28039 ft | 462 kts | 98° |
| 2026-05-07 21:13 | 49.92632 | 18.52627 | 27202 ft | 462 kts | 98° |
| 2026-05-07 21:14 | 49.92476 | 18.57614 | 26298 ft | 462 kts | 98° |
| 2026-05-07 21:14 | 49.92316 | 18.62614 | 25416 ft | 462 kts | 98° |
| 2026-05-07 21:14 | 49.92153 | 18.67540 | 24604 ft | 460 kts | 97° |
| 2026-05-07 21:14 | 49.91991 | 18.72504 | 23825 ft | 458 kts | 97° |
| 2026-05-07 21:15 | 49.91829 | 18.77451 | 22974 ft | 455 kts | 97° |
| 2026-05-07 21:15 | 49.91604 | 18.82297 | 22126 ft | 452 kts | 98° |
| 2026-05-07 21:15 | 49.91339 | 18.87163 | 21284 ft | 449 kts | 98° |
| 2026-05-07 21:15 | 49.91070 | 18.91939 | 20495 ft | 446 kts | 98° |
| 2026-05-07 21:16 | 49.90799 | 18.96740 | 19710 ft | 443 kts | 98° |
| 2026-05-07 21:16 | 49.90534 | 19.01436 | 18935 ft | 440 kts | 97° |
| 2026-05-07 21:16 | 49.90265 | 19.06116 | 18416 ft | 427 kts | 97° |
| 2026-05-07 21:16 | 49.90007 | 19.10631 | 18065 ft | 409 kts | 97° |
| 2026-05-07 21:17 | 49.89761 | 19.14943 | 17771 ft | 391 kts | 97° |
| 2026-05-07 21:17 | 49.89524 | 19.19016 | 17527 ft | 375 kts | 97° |
| 2026-05-07 21:17 | 49.89292 | 19.22976 | 17310 ft | 358 kts | 98° |
| 2026-05-07 21:17 | 49.89136 | 19.26729 | 17099 ft | 346 kts | 91° |
| 2026-05-07 21:18 | 49.89590 | 19.30347 | 16859 ft | 337 kts | 72° |
| 2026-05-07 21:18 | 49.90492 | 19.33693 | 16352 ft | 335 kts | 67° |
| 2026-05-07 21:18 | 49.91440 | 19.36952 | 15846 ft | 334 kts | 67° |
| 2026-05-07 21:18 | 49.92388 | 19.40242 | 15379 ft | 331 kts | 67° |
| 2026-05-07 21:19 | 49.93304 | 19.43474 | 14897 ft | 328 kts | 67° |
| 2026-05-07 21:19 | 49.94218 | 19.46717 | 14313 ft | 327 kts | 68° |
| 2026-05-07 21:19 | 49.94979 | 19.50038 | 13873 ft | 322 kts | 78° |
| 2026-05-07 21:19 | 49.95462 | 19.53416 | 13460 ft | 317 kts | 80° |
| 2026-05-07 21:20 | 49.95907 | 19.56750 | 13068 ft | 313 kts | 79° |
| 2026-05-07 21:20 | 49.96345 | 19.60026 | 12712 ft | 312 kts | 79° |
| 2026-05-07 21:20 | 49.96790 | 19.63350 | 12365 ft | 311 kts | 79° |
| 2026-05-07 21:20 | 49.97232 | 19.66606 | 12029 ft | 309 kts | 79° |
| 2026-05-07 21:21 | 49.97671 | 19.69844 | 11682 ft | 308 kts | 79° |
| 2026-05-07 21:21 | 49.98110 | 19.73102 | 11339 ft | 307 kts | 78° |
| 2026-05-07 21:21 | 49.98547 | 19.76364 | 10992 ft | 306 kts | 78° |
| 2026-05-07 21:21 | 49.98980 | 19.79571 | 10655 ft | 306 kts | 78° |
| 2026-05-07 21:22 | 49.99417 | 19.82825 | 10309 ft | 306 kts | 78° |
| 2026-05-07 21:22 | 49.99853 | 19.86063 | 9982 ft | 305 kts | 78° |
| 2026-05-07 21:22 | 50.00282 | 19.89255 | 9618 ft | 303 kts | 78° |
| 2026-05-07 21:22 | 50.00711 | 19.92428 | 9367 ft | 293 kts | 77° |
| 2026-05-07 21:23 | 50.01125 | 19.95486 | 9200 ft | 282 kts | 77° |
| 2026-05-07 21:23 | 50.01517 | 19.98390 | 9060 ft | 271 kts | 77° |
| 2026-05-07 21:23 | 50.01899 | 20.01217 | 8815 ft | 264 kts | 78° |
| 2026-05-07 21:23 | 50.02274 | 20.03976 | 8455 ft | 262 kts | 77° |
| 2026-05-07 21:24 | 50.02650 | 20.06748 | 8091 ft | 261 kts | 77° |
| 2026-05-07 21:24 | 50.03023 | 20.09501 | 7749 ft | 258 kts | 77° |
| 2026-05-07 21:24 | 50.03393 | 20.12236 | 7422 ft | 259 kts | 77° |
| 2026-05-07 21:24 | 50.03765 | 20.14963 | 7095 ft | 260 kts | 77° |
| 2026-05-07 21:25 | 50.04138 | 20.17707 | 6759 ft | 258 kts | 77° |
| 2026-05-07 21:25 | 50.04554 | 20.20428 | 6418 ft | 256 kts | 69° |
| 2026-05-07 21:25 | 50.05503 | 20.22690 | 6072 ft | 247 kts | 37° |
| 2026-05-07 21:25 | 50.06990 | 20.23806 | 5792 ft | 237 kts | 6° |
| 2026-05-07 21:26 | 50.08596 | 20.23697 | 5541 ft | 226 kts | 345° |
| 2026-05-07 21:26 | 50.10091 | 20.23139 | 5310 ft | 222 kts | 343° |
| 2026-05-07 21:26 | 50.11545 | 20.22400 | 5072 ft | 216 kts | 329° |
| 2026-05-07 21:26 | 50.12677 | 20.20879 | 4947 ft | 208 kts | 302° |
| 2026-05-07 21:27 | 50.13195 | 20.18893 | 4794 ft | 196 kts | 278° |
| 2026-05-07 21:27 | 50.13125 | 20.16797 | 4517 ft | 192 kts | 259° |
| 2026-05-07 21:27 | 50.12802 | 20.14787 | 4239 ft | 189 kts | 257° |
| 2026-05-07 21:27 | 50.12493 | 20.12812 | 3992 ft | 190 kts | 258° |
| 2026-05-07 21:28 | 50.12206 | 20.10798 | 3939 ft | 190 kts | 259° |
| 2026-05-07 21:28 | 50.11936 | 20.08878 | 3966 ft | 169 kts | 259° |
| 2026-05-07 21:28 | 50.11704 | 20.07134 | 3726 ft | 164 kts | 259° |
| 2026-05-07 21:28 | 50.11466 | 20.05410 | 3431 ft | 159 kts | 259° |
| 2026-05-07 21:29 | 50.11245 | 20.03795 | 3179 ft | 149 kts | 259° |
| 2026-05-07 21:29 | 50.11030 | 20.02221 | 2980 ft | 148 kts | 259° |
| 2026-05-07 21:29 | 50.10830 | 20.00758 | 2970 ft | 133 kts | 259° |
| 2026-05-07 21:29 | 50.10641 | 19.99368 | 2985 ft | 132 kts | 259° |
| 2026-05-07 21:30 | 50.10447 | 19.97969 | 2993 ft | 132 kts | 259° |
| 2026-05-07 21:30 | 50.10254 | 19.96569 | 2904 ft | 132 kts | 259° |
| 2026-05-07 21:30 | 50.10072 | 19.95182 | 2703 ft | 131 kts | 260° |
| 2026-05-07 21:30 | 50.09877 | 19.93814 | 2502 ft | 131 kts | 259° |
| 2026-05-07 21:31 | 50.09683 | 19.92414 | 2311 ft | 131 kts | 258° |
| 2026-05-07 21:31 | 50.09489 | 19.91041 | 2149 ft | 132 kts | 259° |
| 2026-05-07 21:31 | 50.09293 | 19.89646 | 1976 ft | 132 kts | 259° |
| 2026-05-07 21:31 | 50.09092 | 19.88252 | 1741 ft | 132 kts | 259° |
| 2026-05-07 21:32 | 50.08891 | 19.86853 | 1477 ft | 135 kts | 259° |
| 2026-05-07 21:32 | 50.08716 | 19.85405 | 1364 ft | 139 kts | 258° |
| 2026-05-07 21:32 | 50.08531 | 19.83902 | 1241 ft | 142 kts | 259° |
| 2026-05-07 21:32 | 50.08314 | 19.82369 | 1121 ft | 142 kts | 256° |
| 2026-05-07 21:33 | 50.08111 | 19.80868 | 954 ft | 143 kts | 256° |
| 2026-05-07 21:33 | 50.07899 | 19.79388 | 813 ft | 132 kts | 258° |
| 2026-05-07 21:33 | 50.07739 | 19.78237 | 805 ft | 83 kts | 258° |
| 2026-05-07 21:33 | 50.07649 | 19.77604 | 805 ft | 50 kts | 261° |
| 2026-05-07 21:34 | 50.07579 | 19.77079 | 808 ft | 37 kts | 257° |
| 2026-05-07 21:34 | 50.07534 | 19.76851 | 808 ft | 23 kts | 208° |
| 2026-05-07 21:34 | 50.07409 | 19.76865 | 805 ft | 16 kts | 170° |
| 2026-05-07 21:34 | 50.07308 | 19.76937 | 805 ft | 18 kts | 94° |
| 2026-05-07 21:35 | 50.07334 | 19.77142 | 805 ft | 21 kts | 77° |
| 2026-05-07 21:35 | 50.07367 | 19.77372 | 805 ft | 23 kts | 77° |
| 2026-05-07 21:35 | 50.07400 | 19.77623 | 805 ft | 25 kts | 79° |
| 2026-05-07 21:35 | 50.07436 | 19.77902 | 805 ft | 27 kts | 77° |
| 2026-05-07 21:36 | 50.07479 | 19.78197 | 805 ft | 29 kts | 77° |
| 2026-05-07 21:36 | 50.07526 | 19.78516 | 805 ft | 31 kts | 78° |
| 2026-05-07 21:36 | 50.07572 | 19.78858 | 805 ft | 33 kts | 78° |
| 2026-05-07 21:36 | 50.07605 | 19.79099 | 805 ft | 13 kts | 78° |
| 2026-05-07 21:37 | 50.07626 | 19.79254 | 805 ft | 16 kts | 78° |
| 2026-05-07 21:37 | 50.07651 | 19.79433 | 805 ft | 18 kts | 77° |
| 2026-05-07 21:37 | 50.07681 | 19.79642 | 805 ft | 21 kts | 77° |
| 2026-05-07 21:37 | 50.07702 | 19.79843 | 805 ft | 19 kts | 124° |
| 2026-05-07 21:38 | 50.07581 | 19.79909 | 805 ft | 20 kts | 169° |
| 2026-05-07 21:38 | 50.07474 | 19.79945 | 805 ft | 15 kts | 167° |
| 2026-05-07 21:38 | 50.07412 | 19.79973 | 805 ft | 9 kts | 152° |
| 2026-05-07 21:38 | 50.07380 | 19.79911 | 805 ft | 7 kts | 260° |
| 2026-05-07 21:39 | 50.07344 | 19.79864 | 805 ft | 10 kts | 167° |
| 2026-05-07 21:39 | 50.07298 | 19.79884 | 805 ft | 4 kts | 167° |
| 2026-05-07 21:39 | 50.07291 | 19.79887 | 805 ft | 0 kts | 168° |